sensor_id;sensor_type;location;lat;lon;timestamp;P1;durP1;ratioP1;P2;durP2;ratioP2
72924;SDS011;61070;50.794;7.054;2023-02-16T00:01:25;51.28;;;23.88;;
72924;SDS011;61070;50.794;7.054;2023-02-16T00:03:54;48.28;;;21.70;;
72924;SDS011;61070;50.794;7.054;2023-02-16T00:06:20;47.00;;;22.70;;
72924;SDS011;61070;50.794;7.054;2023-02-16T00:08:47;52.17;;;24.08;;
72924;SDS011;61070;50.794;7.054;2023-02-16T00:11:16;47.05;;;22.90;;
72924;SDS011;61070;50.794;7.054;2023-02-16T00:14:10;43.65;;;21.95;;
72924;SDS011;61070;50.794;7.054;2023-02-16T00:16:37;46.40;;;22.00;;
72924;SDS011;61070;50.794;7.054;2023-02-16T00:21:47;49.58;;;22.75;;
72924;SDS011;61070;50.794;7.054;2023-02-16T00:24:14;46.05;;;23.08;;
72924;SDS011;61070;50.794;7.054;2023-02-16T00:26:39;47.22;;;23.48;;
72924;SDS011;61070;50.794;7.054;2023-02-16T00:29:05;48.83;;;24.40;;
72924;SDS011;61070;50.794;7.054;2023-02-16T00:31:30;47.40;;;22.65;;
72924;SDS011;61070;50.794;7.054;2023-02-16T00:33:56;49.80;;;21.73;;
72924;SDS011;61070;50.794;7.054;2023-02-16T00:36:22;48.25;;;22.15;;
72924;SDS011;61070;50.794;7.054;2023-02-16T00:38:47;51.58;;;23.17;;
72924;SDS011;61070;50.794;7.054;2023-02-16T00:41:19;42.17;;;20.85;;
72924;SDS011;61070;50.794;7.054;2023-02-16T00:44:05;47.63;;;22.83;;
72924;SDS011;61070;50.794;7.054;2023-02-16T00:46:39;50.03;;;23.08;;
72924;SDS011;61070;50.794;7.054;2023-02-16T00:49:04;48.90;;;22.77;;
72924;SDS011;61070;50.794;7.054;2023-02-16T00:51:37;49.35;;;23.80;;
72924;SDS011;61070;50.794;7.054;2023-02-16T00:54:02;47.55;;;21.95;;
72924;SDS011;61070;50.794;7.054;2023-02-16T00:56:28;44.47;;;21.95;;
72924;SDS011;61070;50.794;7.054;2023-02-16T00:58:53;47.15;;;23.08;;
72924;SDS011;61070;50.794;7.054;2023-02-16T01:01:18;51.22;;;23.83;;
72924;SDS011;61070;50.794;7.054;2023-02-16T01:03:48;48.85;;;23.77;;
72924;SDS011;61070;50.794;7.054;2023-02-16T01:06:13;47.05;;;21.10;;
72924;SDS011;61070;50.794;7.054;2023-02-16T01:09:01;47.00;;;21.65;;
72924;SDS011;61070;50.794;7.054;2023-02-16T01:11:53;48.85;;;23.90;;
72924;SDS011;61070;50.794;7.054;2023-02-16T01:14:19;46.15;;;22.70;;
72924;SDS011;61070;50.794;7.054;2023-02-16T01:16:44;46.38;;;22.52;;
72924;SDS011;61070;50.794;7.054;2023-02-16T01:19:10;46.95;;;22.73;;
72924;SDS011;61070;50.794;7.054;2023-02-16T01:21:36;47.83;;;23.55;;
72924;SDS011;61070;50.794;7.054;2023-02-16T01:24:02;49.30;;;23.30;;
72924;SDS011;61070;50.794;7.054;2023-02-16T01:26:27;47.85;;;22.25;;
72924;SDS011;61070;50.794;7.054;2023-02-16T01:28:53;53.00;;;22.70;;
72924;SDS011;61070;50.794;7.054;2023-02-16T01:31:19;50.10;;;22.52;;
72924;SDS011;61070;50.794;7.054;2023-02-16T01:33:44;50.67;;;23.15;;
72924;SDS011;61070;50.794;7.054;2023-02-16T01:36:18;53.65;;;24.23;;
72924;SDS011;61070;50.794;7.054;2023-02-16T01:38:48;46.50;;;23.15;;
72924;SDS011;61070;50.794;7.054;2023-02-16T01:41:17;50.55;;;22.75;;
72924;SDS011;61070;50.794;7.054;2023-02-16T01:46:24;55.20;;;24.52;;
72924;SDS011;61070;50.794;7.054;2023-02-16T01:48:57;56.00;;;23.27;;
72924;SDS011;61070;50.794;7.054;2023-02-16T01:51:27;48.67;;;22.90;;
72924;SDS011;61070;50.794;7.054;2023-02-16T01:54:09;46.05;;;21.77;;
72924;SDS011;61070;50.794;7.054;2023-02-16T02:02:01;49.63;;;24.48;;
72924;SDS011;61070;50.794;7.054;2023-02-16T02:04:36;48.50;;;23.90;;
72924;SDS011;61070;50.794;7.054;2023-02-16T02:07:26;50.30;;;23.23;;
72924;SDS011;61070;50.794;7.054;2023-02-16T02:12:50;53.00;;;23.63;;
72924;SDS011;61070;50.794;7.054;2023-02-16T02:15:21;51.35;;;23.90;;
72924;SDS011;61070;50.794;7.054;2023-02-16T02:17:51;52.83;;;22.95;;
72924;SDS011;61070;50.794;7.054;2023-02-16T02:23:21;50.95;;;24.20;;
72924;SDS011;61070;50.794;7.054;2023-02-16T02:39:51;43.30;;;22.27;;
72924;SDS011;61070;50.794;7.054;2023-02-16T02:42:32;45.35;;;21.90;;
72924;SDS011;61070;50.794;7.054;2023-02-16T02:45:10;53.95;;;24.02;;
72924;SDS011;61070;50.794;7.054;2023-02-16T02:47:44;49.05;;;21.90;;
72924;SDS011;61070;50.794;7.054;2023-02-16T02:52:55;46.05;;;22.55;;
72924;SDS011;61070;50.794;7.054;2023-02-16T02:58:09;51.85;;;23.02;;
72924;SDS011;61070;50.794;7.054;2023-02-16T03:00:55;53.78;;;22.83;;
72924;SDS011;61070;50.794;7.054;2023-02-16T03:03:23;42.25;;;20.80;;
72924;SDS011;61070;50.794;7.054;2023-02-16T03:05:55;47.92;;;22.83;;
72924;SDS011;61070;50.794;7.054;2023-02-16T03:08:24;54.42;;;24.42;;
72924;SDS011;61070;50.794;7.054;2023-02-16T03:11:00;39.17;;;18.02;;
72924;SDS011;61070;50.794;7.054;2023-02-16T03:13:51;52.22;;;23.67;;
72924;SDS011;61070;50.794;7.054;2023-02-16T03:16:26;56.00;;;24.60;;
72924;SDS011;61070;50.794;7.054;2023-02-16T03:18:55;49.85;;;22.58;;
72924;SDS011;61070;50.794;7.054;2023-02-16T03:21:41;47.28;;;22.92;;
72924;SDS011;61070;50.794;7.054;2023-02-16T03:24:27;49.28;;;23.70;;
72924;SDS011;61070;50.794;7.054;2023-02-16T03:27:13;50.25;;;23.45;;
72924;SDS011;61070;50.794;7.054;2023-02-16T03:30:02;50.72;;;22.67;;
72924;SDS011;61070;50.794;7.054;2023-02-16T03:32:29;50.67;;;25.20;;
72924;SDS011;61070;50.794;7.054;2023-02-16T03:34:55;47.40;;;23.15;;
72924;SDS011;61070;50.794;7.054;2023-02-16T03:37:20;51.53;;;23.87;;
72924;SDS011;61070;50.794;7.054;2023-02-16T03:39:46;52.88;;;23.85;;
72924;SDS011;61070;50.794;7.054;2023-02-16T03:42:31;50.33;;;22.27;;
72924;SDS011;61070;50.794;7.054;2023-02-16T03:44:56;49.33;;;24.35;;
72924;SDS011;61070;50.794;7.054;2023-02-16T03:47:21;47.97;;;23.40;;
72924;SDS011;61070;50.794;7.054;2023-02-16T03:49:47;53.10;;;24.83;;
72924;SDS011;61070;50.794;7.054;2023-02-16T03:52:12;51.63;;;23.73;;
72924;SDS011;61070;50.794;7.054;2023-02-16T03:54:37;51.53;;;24.13;;
72924;SDS011;61070;50.794;7.054;2023-02-16T03:57:03;52.60;;;23.42;;
72924;SDS011;61070;50.794;7.054;2023-02-16T03:59:28;54.00;;;24.02;;
72924;SDS011;61070;50.794;7.054;2023-02-16T04:01:53;46.88;;;23.48;;
72924;SDS011;61070;50.794;7.054;2023-02-16T04:04:19;47.05;;;23.05;;
72924;SDS011;61070;50.794;7.054;2023-02-16T04:06:44;48.53;;;23.55;;
72924;SDS011;61070;50.794;7.054;2023-02-16T04:09:09;47.88;;;23.23;;
72924;SDS011;61070;50.794;7.054;2023-02-16T04:11:34;52.97;;;25.92;;
72924;SDS011;61070;50.794;7.054;2023-02-16T04:14:18;54.85;;;23.75;;
72924;SDS011;61070;50.794;7.054;2023-02-16T04:16:43;56.78;;;25.20;;
72924;SDS011;61070;50.794;7.054;2023-02-16T04:19:09;54.50;;;24.25;;
72924;SDS011;61070;50.794;7.054;2023-02-16T04:21:35;52.47;;;24.90;;
72924;SDS011;61070;50.794;7.054;2023-02-16T04:24:00;49.95;;;23.80;;
72924;SDS011;61070;50.794;7.054;2023-02-16T04:26:26;56.72;;;23.38;;
72924;SDS011;61070;50.794;7.054;2023-02-16T04:28:52;58.92;;;25.67;;
72924;SDS011;61070;50.794;7.054;2023-02-16T04:31:17;50.33;;;24.45;;
72924;SDS011;61070;50.794;7.054;2023-02-16T04:33:42;49.05;;;22.88;;
72924;SDS011;61070;50.794;7.054;2023-02-16T04:36:08;53.45;;;25.05;;
72924;SDS011;61070;50.794;7.054;2023-02-16T04:38:33;55.30;;;24.25;;
72924;SDS011;61070;50.794;7.054;2023-02-16T04:40:59;49.05;;;23.15;;
72924;SDS011;61070;50.794;7.054;2023-02-16T04:43:24;47.17;;;21.88;;
72924;SDS011;61070;50.794;7.054;2023-02-16T04:45:49;44.15;;;22.63;;
72924;SDS011;61070;50.794;7.054;2023-02-16T04:48:15;54.42;;;24.33;;
72924;SDS011;61070;50.794;7.054;2023-02-16T04:50:40;50.78;;;23.60;;
72924;SDS011;61070;50.794;7.054;2023-02-16T04:53:05;50.42;;;21.85;;
72924;SDS011;61070;50.794;7.054;2023-02-16T04:55:31;52.38;;;24.38;;
72924;SDS011;61070;50.794;7.054;2023-02-16T04:57:56;48.92;;;22.98;;
72924;SDS011;61070;50.794;7.054;2023-02-16T05:00:22;50.60;;;23.48;;
72924;SDS011;61070;50.794;7.054;2023-02-16T05:02:47;56.95;;;24.27;;
72924;SDS011;61070;50.794;7.054;2023-02-16T05:05:12;50.42;;;24.02;;
72924;SDS011;61070;50.794;7.054;2023-02-16T05:07:38;47.25;;;23.08;;
72924;SDS011;61070;50.794;7.054;2023-02-16T05:10:04;53.92;;;24.25;;
72924;SDS011;61070;50.794;7.054;2023-02-16T05:12:30;52.75;;;25.55;;
72924;SDS011;61070;50.794;7.054;2023-02-16T05:15:13;54.22;;;25.45;;
72924;SDS011;61070;50.794;7.054;2023-02-16T05:17:39;49.28;;;23.17;;
72924;SDS011;61070;50.794;7.054;2023-02-16T05:20:04;55.80;;;23.67;;
72924;SDS011;61070;50.794;7.054;2023-02-16T05:22:30;51.55;;;23.35;;
72924;SDS011;61070;50.794;7.054;2023-02-16T05:24:58;52.85;;;23.33;;
72924;SDS011;61070;50.794;7.054;2023-02-16T05:27:24;54.53;;;24.10;;
72924;SDS011;61070;50.794;7.054;2023-02-16T05:29:51;53.85;;;23.75;;
72924;SDS011;61070;50.794;7.054;2023-02-16T05:32:16;53.55;;;24.40;;
72924;SDS011;61070;50.794;7.054;2023-02-16T05:34:42;48.92;;;23.50;;
72924;SDS011;61070;50.794;7.054;2023-02-16T05:37:09;55.25;;;25.33;;
72924;SDS011;61070;50.794;7.054;2023-02-16T05:39:35;43.92;;;22.65;;
72924;SDS011;61070;50.794;7.054;2023-02-16T05:42:00;56.35;;;27.67;;
72924;SDS011;61070;50.794;7.054;2023-02-16T05:44:25;52.83;;;24.90;;
72924;SDS011;61070;50.794;7.054;2023-02-16T05:46:51;57.50;;;25.20;;
72924;SDS011;61070;50.794;7.054;2023-02-16T05:49:16;55.25;;;25.33;;
72924;SDS011;61070;50.794;7.054;2023-02-16T05:51:42;64.15;;;28.73;;
72924;SDS011;61070;50.794;7.054;2023-02-16T05:54:07;54.90;;;25.70;;
72924;SDS011;61070;50.794;7.054;2023-02-16T05:56:34;57.85;;;25.73;;
72924;SDS011;61070;50.794;7.054;2023-02-16T05:58:59;53.50;;;23.42;;
72924;SDS011;61070;50.794;7.054;2023-02-16T06:01:26;55.05;;;27.20;;
72924;SDS011;61070;50.794;7.054;2023-02-16T06:03:52;61.95;;;25.38;;
72924;SDS011;61070;50.794;7.054;2023-02-16T06:06:18;55.20;;;24.23;;
72924;SDS011;61070;50.794;7.054;2023-02-16T06:08:43;52.85;;;24.05;;
72924;SDS011;61070;50.794;7.054;2023-02-16T06:11:09;54.13;;;24.88;;
72924;SDS011;61070;50.794;7.054;2023-02-16T06:13:53;55.05;;;25.95;;
72924;SDS011;61070;50.794;7.054;2023-02-16T06:16:22;53.28;;;25.50;;
72924;SDS011;61070;50.794;7.054;2023-02-16T06:18:51;52.72;;;23.42;;
72924;SDS011;61070;50.794;7.054;2023-02-16T06:21:16;51.30;;;24.88;;
72924;SDS011;61070;50.794;7.054;2023-02-16T06:23:42;50.75;;;23.73;;
72924;SDS011;61070;50.794;7.054;2023-02-16T06:26:07;59.05;;;25.45;;
72924;SDS011;61070;50.794;7.054;2023-02-16T06:28:32;56.85;;;25.33;;
72924;SDS011;61070;50.794;7.054;2023-02-16T06:30:57;57.83;;;26.08;;
72924;SDS011;61070;50.794;7.054;2023-02-16T06:33:23;64.10;;;26.13;;
72924;SDS011;61070;50.794;7.054;2023-02-16T06:35:48;52.22;;;24.05;;
72924;SDS011;61070;50.794;7.054;2023-02-16T06:38:13;62.17;;;26.63;;
72924;SDS011;61070;50.794;7.054;2023-02-16T06:40:38;63.75;;;25.08;;
72924;SDS011;61070;50.794;7.054;2023-02-16T06:43:04;59.17;;;26.77;;
72924;SDS011;61070;50.794;7.054;2023-02-16T06:45:29;57.40;;;26.45;;
72924;SDS011;61070;50.794;7.054;2023-02-16T06:47:54;57.75;;;25.52;;
72924;SDS011;61070;50.794;7.054;2023-02-16T06:50:19;60.13;;;27.08;;
72924;SDS011;61070;50.794;7.054;2023-02-16T06:52:45;55.30;;;25.25;;
72924;SDS011;61070;50.794;7.054;2023-02-16T06:55:10;58.25;;;24.73;;
72924;SDS011;61070;50.794;7.054;2023-02-16T06:57:36;58.95;;;26.42;;
72924;SDS011;61070;50.794;7.054;2023-02-16T07:00:03;59.90;;;25.65;;
72924;SDS011;61070;50.794;7.054;2023-02-16T07:02:30;71.45;;;28.17;;
72924;SDS011;61070;50.794;7.054;2023-02-16T07:04:55;59.97;;;26.85;;
72924;SDS011;61070;50.794;7.054;2023-02-16T07:07:20;68.43;;;28.23;;
72924;SDS011;61070;50.794;7.054;2023-02-16T07:09:46;63.45;;;26.98;;
72924;SDS011;61070;50.794;7.054;2023-02-16T07:12:11;61.15;;;28.70;;
72924;SDS011;61070;50.794;7.054;2023-02-16T07:14:37;68.32;;;29.48;;
72924;SDS011;61070;50.794;7.054;2023-02-16T07:17:02;66.53;;;30.50;;
72924;SDS011;61070;50.794;7.054;2023-02-16T07:19:28;72.55;;;30.35;;
72924;SDS011;61070;50.794;7.054;2023-02-16T07:21:57;59.03;;;28.10;;
72924;SDS011;61070;50.794;7.054;2023-02-16T07:24:26;63.47;;;29.35;;
72924;SDS011;61070;50.794;7.054;2023-02-16T07:26:51;62.50;;;28.17;;
72924;SDS011;61070;50.794;7.054;2023-02-16T07:29:17;62.30;;;27.45;;
72924;SDS011;61070;50.794;7.054;2023-02-16T07:31:42;60.40;;;28.60;;
72924;SDS011;61070;50.794;7.054;2023-02-16T07:34:08;59.72;;;26.83;;
72924;SDS011;61070;50.794;7.054;2023-02-16T07:36:33;59.13;;;27.55;;
72924;SDS011;61070;50.794;7.054;2023-02-16T07:38:58;59.53;;;26.90;;
72924;SDS011;61070;50.794;7.054;2023-02-16T07:41:24;65.72;;;29.73;;
72924;SDS011;61070;50.794;7.054;2023-02-16T07:43:49;63.72;;;29.08;;
72924;SDS011;61070;50.794;7.054;2023-02-16T07:46:14;61.28;;;28.83;;
72924;SDS011;61070;50.794;7.054;2023-02-16T07:48:40;62.28;;;29.23;;
72924;SDS011;61070;50.794;7.054;2023-02-16T07:51:05;58.10;;;29.50;;
72924;SDS011;61070;50.794;7.054;2023-02-16T07:53:30;62.83;;;28.98;;
72924;SDS011;61070;50.794;7.054;2023-02-16T07:55:55;67.55;;;30.92;;
72924;SDS011;61070;50.794;7.054;2023-02-16T07:58:21;63.88;;;29.40;;
72924;SDS011;61070;50.794;7.054;2023-02-16T08:00:56;66.07;;;30.20;;
72924;SDS011;61070;50.794;7.054;2023-02-16T08:03:31;70.68;;;29.02;;
72924;SDS011;61070;50.794;7.054;2023-02-16T08:05:58;60.90;;;29.42;;
72924;SDS011;61070;50.794;7.054;2023-02-16T08:08:25;70.13;;;30.55;;
72924;SDS011;61070;50.794;7.054;2023-02-16T08:10:50;65.28;;;28.88;;
72924;SDS011;61070;50.794;7.054;2023-02-16T08:13:15;62.35;;;28.13;;
72924;SDS011;61070;50.794;7.054;2023-02-16T08:15:41;59.78;;;28.42;;
72924;SDS011;61070;50.794;7.054;2023-02-16T08:18:08;66.80;;;29.80;;
72924;SDS011;61070;50.794;7.054;2023-02-16T08:20:33;62.20;;;29.58;;
72924;SDS011;61070;50.794;7.054;2023-02-16T08:22:58;67.40;;;30.80;;
72924;SDS011;61070;50.794;7.054;2023-02-16T08:25:24;60.92;;;29.15;;
72924;SDS011;61070;50.794;7.054;2023-02-16T08:27:49;59.60;;;29.17;;
72924;SDS011;61070;50.794;7.054;2023-02-16T08:30:15;65.95;;;29.92;;
72924;SDS011;61070;50.794;7.054;2023-02-16T08:32:42;66.57;;;29.10;;
72924;SDS011;61070;50.794;7.054;2023-02-16T08:35:08;69.85;;;29.35;;
72924;SDS011;61070;50.794;7.054;2023-02-16T08:37:34;61.90;;;28.20;;
72924;SDS011;61070;50.794;7.054;2023-02-16T08:40:01;64.38;;;30.15;;
72924;SDS011;61070;50.794;7.054;2023-02-16T08:42:27;62.13;;;29.02;;
72924;SDS011;61070;50.794;7.054;2023-02-16T08:44:52;67.50;;;30.40;;
72924;SDS011;61070;50.794;7.054;2023-02-16T08:47:18;59.72;;;28.83;;
72924;SDS011;61070;50.794;7.054;2023-02-16T08:49:45;72.70;;;32.08;;
72924;SDS011;61070;50.794;7.054;2023-02-16T08:52:10;63.08;;;28.13;;
72924;SDS011;61070;50.794;7.054;2023-02-16T08:54:36;62.70;;;27.77;;
72924;SDS011;61070;50.794;7.054;2023-02-16T08:57:03;65.28;;;29.48;;
72924;SDS011;61070;50.794;7.054;2023-02-16T08:59:28;60.90;;;28.75;;
72924;SDS011;61070;50.794;7.054;2023-02-16T09:01:55;63.03;;;29.17;;
72924;SDS011;61070;50.794;7.054;2023-02-16T09:04:21;58.65;;;27.88;;
72924;SDS011;61070;50.794;7.054;2023-02-16T09:06:46;60.75;;;28.35;;
72924;SDS011;61070;50.794;7.054;2023-02-16T09:09:12;57.00;;;26.15;;
72924;SDS011;61070;50.794;7.054;2023-02-16T09:11:38;55.22;;;27.67;;
72924;SDS011;61070;50.794;7.054;2023-02-16T09:14:04;58.83;;;27.67;;
72924;SDS011;61070;50.794;7.054;2023-02-16T09:16:30;55.60;;;25.38;;
72924;SDS011;61070;50.794;7.054;2023-02-16T09:18:59;56.30;;;27.45;;
72924;SDS011;61070;50.794;7.054;2023-02-16T09:21:26;59.30;;;28.73;;
72924;SDS011;61070;50.794;7.054;2023-02-16T09:26:22;57.28;;;28.38;;
72924;SDS011;61070;50.794;7.054;2023-02-16T09:28:49;53.33;;;26.08;;
72924;SDS011;61070;50.794;7.054;2023-02-16T09:31:16;58.88;;;28.63;;
72924;SDS011;61070;50.794;7.054;2023-02-16T09:33:47;55.00;;;27.52;;
72924;SDS011;61070;50.794;7.054;2023-02-16T09:36:13;65.63;;;29.25;;
72924;SDS011;61070;50.794;7.054;2023-02-16T09:38:38;55.97;;;29.52;;
72924;SDS011;61070;50.794;7.054;2023-02-16T09:41:07;52.35;;;26.52;;
72924;SDS011;61070;50.794;7.054;2023-02-16T09:43:45;56.88;;;27.92;;
72924;SDS011;61070;50.794;7.054;2023-02-16T09:46:16;53.88;;;26.92;;
72924;SDS011;61070;50.794;7.054;2023-02-16T09:48:45;54.42;;;27.50;;
72924;SDS011;61070;50.794;7.054;2023-02-16T09:51:15;54.65;;;26.50;;
72924;SDS011;61070;50.794;7.054;2023-02-16T09:53:44;57.00;;;28.08;;
72924;SDS011;61070;50.794;7.054;2023-02-16T09:58:54;51.60;;;25.75;;
72924;SDS011;61070;50.794;7.054;2023-02-16T10:01:27;56.47;;;25.70;;
72924;SDS011;61070;50.794;7.054;2023-02-16T10:09:46;57.25;;;26.35;;
72924;SDS011;61070;50.794;7.054;2023-02-16T10:12:18;50.85;;;25.45;;
72924;SDS011;61070;50.794;7.054;2023-02-16T10:14:49;57.25;;;25.23;;
72924;SDS011;61070;50.794;7.054;2023-02-16T10:17:22;51.93;;;25.00;;
72924;SDS011;61070;50.794;7.054;2023-02-16T10:20:10;44.58;;;24.65;;
72924;SDS011;61070;50.794;7.054;2023-02-16T10:22:41;47.20;;;24.58;;
72924;SDS011;61070;50.794;7.054;2023-02-16T10:28:00;46.30;;;23.55;;
72924;SDS011;61070;50.794;7.054;2023-02-16T10:30:37;49.13;;;24.08;;
72924;SDS011;61070;50.794;7.054;2023-02-16T10:33:11;45.47;;;24.60;;
72924;SDS011;61070;50.794;7.054;2023-02-16T10:35:47;45.85;;;24.77;;
72924;SDS011;61070;50.794;7.054;2023-02-16T10:41:11;44.38;;;24.52;;
72924;SDS011;61070;50.794;7.054;2023-02-16T10:43:49;46.70;;;23.05;;
72924;SDS011;61070;50.794;7.054;2023-02-16T10:46:22;46.72;;;22.35;;
72924;SDS011;61070;50.794;7.054;2023-02-16T10:48:54;49.78;;;23.80;;
72924;SDS011;61070;50.794;7.054;2023-02-16T10:51:20;49.03;;;24.60;;
72924;SDS011;61070;50.794;7.054;2023-02-16T10:53:53;48.50;;;24.05;;
72924;SDS011;61070;50.794;7.054;2023-02-16T10:59:16;42.50;;;23.95;;
72924;SDS011;61070;50.794;7.054;2023-02-16T11:01:43;48.10;;;23.60;;
72924;SDS011;61070;50.794;7.054;2023-02-16T11:07:07;41.72;;;22.90;;
72924;SDS011;61070;50.794;7.054;2023-02-16T11:09:44;50.90;;;23.00;;
72924;SDS011;61070;50.794;7.054;2023-02-16T11:12:13;38.13;;;21.48;;
72924;SDS011;61070;50.794;7.054;2023-02-16T11:14:45;48.38;;;21.40;;
72924;SDS011;61070;50.794;7.054;2023-02-16T11:17:13;40.63;;;21.60;;
72924;SDS011;61070;50.794;7.054;2023-02-16T11:19:51;51.85;;;23.33;;
72924;SDS011;61070;50.794;7.054;2023-02-16T11:22:27;41.38;;;21.63;;
72924;SDS011;61070;50.794;7.054;2023-02-16T11:27:56;44.78;;;21.95;;
72924;SDS011;61070;50.794;7.054;2023-02-16T11:30:31;43.78;;;21.58;;
72924;SDS011;61070;50.794;7.054;2023-02-16T11:33:01;46.05;;;21.88;;
72924;SDS011;61070;50.794;7.054;2023-02-16T11:35:30;45.13;;;20.83;;
72924;SDS011;61070;50.794;7.054;2023-02-16T11:38:04;47.22;;;21.55;;
72924;SDS011;61070;50.794;7.054;2023-02-16T11:40:31;41.53;;;21.90;;
72924;SDS011;61070;50.794;7.054;2023-02-16T11:42:58;41.38;;;21.38;;
72924;SDS011;61070;50.794;7.054;2023-02-16T11:45:33;43.28;;;20.90;;
72924;SDS011;61070;50.794;7.054;2023-02-16T11:50:36;33.70;;;19.02;;
72924;SDS011;61070;50.794;7.054;2023-02-16T11:53:15;37.42;;;19.35;;
72924;SDS011;61070;50.794;7.054;2023-02-16T11:55:47;41.88;;;19.50;;
72924;SDS011;61070;50.794;7.054;2023-02-16T12:00:45;39.92;;;19.67;;
72924;SDS011;61070;50.794;7.054;2023-02-16T12:14:35;34.88;;;19.35;;
72924;SDS011;61070;50.794;7.054;2023-02-16T12:17:18;44.60;;;19.10;;
72924;SDS011;61070;50.794;7.054;2023-02-16T12:22:40;39.95;;;20.52;;
72924;SDS011;61070;50.794;7.054;2023-02-16T12:25:16;35.13;;;18.30;;
72924;SDS011;61070;50.794;7.054;2023-02-16T12:30:47;35.20;;;18.63;;
72924;SDS011;61070;50.794;7.054;2023-02-16T12:36:24;37.00;;;18.90;;
72924;SDS011;61070;50.794;7.054;2023-02-16T12:39:17;33.47;;;20.00;;
72924;SDS011;61070;50.794;7.054;2023-02-16T12:46:56;60.53;;;32.72;;
72924;SDS011;61070;50.794;7.054;2023-02-16T12:49:27;43.80;;;25.10;;
72924;SDS011;61070;50.794;7.054;2023-02-16T12:52:10;45.22;;;24.15;;
72924;SDS011;61070;50.794;7.054;2023-02-16T12:54:48;55.28;;;30.77;;
72924;SDS011;61070;50.794;7.054;2023-02-16T12:57:19;41.80;;;24.10;;
72924;SDS011;61070;50.794;7.054;2023-02-16T13:02:27;41.47;;;20.10;;
72924;SDS011;61070;50.794;7.054;2023-02-16T13:05:02;41.40;;;20.17;;
72924;SDS011;61070;50.794;7.054;2023-02-16T13:07:48;39.28;;;19.58;;
72924;SDS011;61070;50.794;7.054;2023-02-16T13:10:35;44.53;;;20.85;;
72924;SDS011;61070;50.794;7.054;2023-02-16T13:13:15;40.88;;;20.17;;
72924;SDS011;61070;50.794;7.054;2023-02-16T13:15:49;39.20;;;19.60;;
72924;SDS011;61070;50.794;7.054;2023-02-16T13:18:23;35.72;;;20.13;;
72924;SDS011;61070;50.794;7.054;2023-02-16T13:20:55;35.17;;;19.25;;
72924;SDS011;61070;50.794;7.054;2023-02-16T13:26:36;33.38;;;19.92;;
72924;SDS011;61070;50.794;7.054;2023-02-16T13:37:24;44.95;;;20.23;;
72924;SDS011;61070;50.794;7.054;2023-02-16T13:45:19;36.28;;;19.10;;
72924;SDS011;61070;50.794;7.054;2023-02-16T13:47:48;33.40;;;19.40;;
72924;SDS011;61070;50.794;7.054;2023-02-16T13:52:45;30.35;;;18.48;;
72924;SDS011;61070;50.794;7.054;2023-02-16T13:55:21;37.13;;;19.13;;
72924;SDS011;61070;50.794;7.054;2023-02-16T13:57:57;33.15;;;17.85;;
72924;SDS011;61070;50.794;7.054;2023-02-16T14:00:35;35.85;;;20.92;;
72924;SDS011;61070;50.794;7.054;2023-02-16T14:05:53;35.95;;;19.30;;
72924;SDS011;61070;50.794;7.054;2023-02-16T14:08:38;42.47;;;19.83;;
72924;SDS011;61070;50.794;7.054;2023-02-16T14:11:05;36.83;;;19.35;;
72924;SDS011;61070;50.794;7.054;2023-02-16T14:16:06;42.42;;;22.45;;
72924;SDS011;61070;50.794;7.054;2023-02-16T14:21:16;40.45;;;22.40;;
72924;SDS011;61070;50.794;7.054;2023-02-16T14:23:58;45.90;;;24.17;;
72924;SDS011;61070;50.794;7.054;2023-02-16T14:26:25;47.20;;;27.00;;
72924;SDS011;61070;50.794;7.054;2023-02-16T14:31:26;38.70;;;20.58;;
72924;SDS011;61070;50.794;7.054;2023-02-16T14:34:02;36.22;;;21.25;;
72924;SDS011;61070;50.794;7.054;2023-02-16T14:36:36;37.65;;;20.17;;
72924;SDS011;61070;50.794;7.054;2023-02-16T14:39:45;35.05;;;20.15;;
72924;SDS011;61070;50.794;7.054;2023-02-16T14:42:13;33.83;;;20.10;;
72924;SDS011;61070;50.794;7.054;2023-02-16T14:53:12;36.60;;;19.33;;
72924;SDS011;61070;50.794;7.054;2023-02-16T14:58:32;39.92;;;19.85;;
72924;SDS011;61070;50.794;7.054;2023-02-16T15:03:38;33.47;;;19.40;;
72924;SDS011;61070;50.794;7.054;2023-02-16T15:06:04;42.42;;;18.58;;
72924;SDS011;61070;50.794;7.054;2023-02-16T15:08:30;33.65;;;18.73;;
72924;SDS011;61070;50.794;7.054;2023-02-16T15:11:00;35.30;;;19.27;;
72924;SDS011;61070;50.794;7.054;2023-02-16T15:13:37;35.33;;;19.17;;
72924;SDS011;61070;50.794;7.054;2023-02-16T15:16:03;38.20;;;19.08;;
72924;SDS011;61070;50.794;7.054;2023-02-16T15:18:36;36.88;;;19.17;;
72924;SDS011;61070;50.794;7.054;2023-02-16T15:21:04;36.97;;;17.95;;
72924;SDS011;61070;50.794;7.054;2023-02-16T15:23:39;43.47;;;22.67;;
72924;SDS011;61070;50.794;7.054;2023-02-16T15:26:17;36.13;;;18.95;;
72924;SDS011;61070;50.794;7.054;2023-02-16T15:28:56;32.28;;;18.23;;
72924;SDS011;61070;50.794;7.054;2023-02-16T15:31:30;33.95;;;17.80;;
72924;SDS011;61070;50.794;7.054;2023-02-16T15:33:59;35.58;;;17.55;;
72924;SDS011;61070;50.794;7.054;2023-02-16T15:36:30;33.92;;;16.60;;
72924;SDS011;61070;50.794;7.054;2023-02-16T15:39:07;39.83;;;19.42;;
72924;SDS011;61070;50.794;7.054;2023-02-16T15:41:37;39.40;;;18.58;;
72924;SDS011;61070;50.794;7.054;2023-02-16T15:44:05;35.28;;;18.77;;
72924;SDS011;61070;50.794;7.054;2023-02-16T15:46:41;35.35;;;18.80;;
72924;SDS011;61070;50.794;7.054;2023-02-16T15:51:45;34.88;;;17.75;;
72924;SDS011;61070;50.794;7.054;2023-02-16T15:54:32;31.25;;;17.83;;
72924;SDS011;61070;50.794;7.054;2023-02-16T16:02:16;17.45;;;10.27;;
72924;SDS011;61070;50.794;7.054;2023-02-16T16:04:47;19.70;;;9.82;;
72924;SDS011;61070;50.794;7.054;2023-02-16T16:07:25;21.05;;;10.30;;
72924;SDS011;61070;50.794;7.054;2023-02-16T16:09:56;21.27;;;10.57;;
72924;SDS011;61070;50.794;7.054;2023-02-16T16:12:23;24.65;;;10.88;;
72924;SDS011;61070;50.794;7.054;2023-02-16T16:14:50;24.85;;;8.52;;
72924;SDS011;61070;50.794;7.054;2023-02-16T16:17:29;22.20;;;9.82;;
72924;SDS011;61070;50.794;7.054;2023-02-16T16:19:57;23.08;;;10.40;;
72924;SDS011;61070;50.794;7.054;2023-02-16T16:24:51;18.50;;;8.95;;
72924;SDS011;61070;50.794;7.054;2023-02-16T16:27:25;20.70;;;8.70;;
72924;SDS011;61070;50.794;7.054;2023-02-16T16:30:06;26.60;;;10.38;;
72924;SDS011;61070;50.794;7.054;2023-02-16T16:32:37;19.63;;;9.25;;
72924;SDS011;61070;50.794;7.054;2023-02-16T16:35:17;17.55;;;8.73;;
72924;SDS011;61070;50.794;7.054;2023-02-16T16:37:48;23.02;;;9.35;;
72924;SDS011;61070;50.794;7.054;2023-02-16T16:45:35;35.08;;;14.23;;
72924;SDS011;61070;50.794;7.054;2023-02-16T16:48:01;25.98;;;11.70;;
72924;SDS011;61070;50.794;7.054;2023-02-16T16:50:34;17.95;;;10.63;;
72924;SDS011;61070;50.794;7.054;2023-02-16T16:53:02;24.23;;;12.63;;
72924;SDS011;61070;50.794;7.054;2023-02-16T16:55:53;27.45;;;12.48;;
72924;SDS011;61070;50.794;7.054;2023-02-16T16:58:18;22.70;;;12.80;;
72924;SDS011;61070;50.794;7.054;2023-02-16T17:00:44;25.20;;;12.15;;
72924;SDS011;61070;50.794;7.054;2023-02-16T17:03:13;26.35;;;12.82;;
72924;SDS011;61070;50.794;7.054;2023-02-16T17:05:40;20.88;;;12.40;;
72924;SDS011;61070;50.794;7.054;2023-02-16T17:08:07;23.27;;;11.45;;
72924;SDS011;61070;50.794;7.054;2023-02-16T17:10:33;21.45;;;12.65;;